Time;durP1;ratioP1;P1;durP2;ratioP2;P2;SDS_P1;SDS_P2;PMS_P1;PMS_P2;Temp;Humidity;BMP_temperature;BMP_pressure;BME280_temperature;BME280_humidity;BME280_pressure;Samples;Min_cycle;Max_cycle;Signal;HPM_P1;HPM_P2
2022/12/10 00:01:13;;;;;;;32.30;17.17;;;-0.20;99.90;;;;;;5058299;28;20033;-70
2022/12/10 00:03:38;;;;;;;36.00;19.15;;;-0.20;99.90;;;;;;5057992;28;20611;-69
2022/12/10 00:06:07;;;;;;;32.22;17.80;;;-0.20;99.90;;;;;;5058079;28;20052;-70
2022/12/10 00:08:34;;;;;;;37.92;19.88;;;-0.20;99.90;;;;;;5043168;28;20084;-74
2022/12/10 00:11:03;;;;;;;38.97;20.13;;;-0.20;99.90;;;;;;5034922;28;20049;-69
2022/12/10 00:13:29;;;;;;;34.75;18.63;;;-0.20;99.90;;;;;;5046639;28;20095;-69
2022/12/10 00:15:55;;;;;;;38.20;19.75;;;-0.10;99.90;;;;;;5038012;28;20048;-69
2022/12/10 00:18:20;;;;;;;40.13;20.02;;;-0.10;99.90;;;;;;5045066;28;20043;-69
2022/12/10 00:20:46;;;;;;;37.65;18.13;;;-0.10;99.90;;;;;;5055818;28;20473;-69
2022/12/10 00:23:11;;;;;;;32.05;17.20;;;-0.10;99.90;;;;;;5073053;28;20041;-69
2022/12/10 00:25:37;;;;;;;37.47;19.30;;;0.00;99.90;;;;;;5074516;28;20473;-70
2022/12/10 00:28:02;;;;;;;35.28;18.23;;;-0.10;99.90;;;;;;5055062;28;20036;-70
2022/12/10 00:30:28;;;;;;;40.78;19.75;;;0.00;99.90;;;;;;5065409;28;20044;-70
2022/12/10 00:32:54;;;;;;;35.40;19.30;;;0.00;99.90;;;;;;5060183;28;20032;-70
2022/12/10 00:35:19;;;;;;;39.15;19.23;;;0.00;99.90;;;;;;5074196;28;20039;-70
2022/12/10 00:37:45;;;;;;;38.03;18.35;;;0.00;99.90;;;;;;5072916;28;20515;-70
2022/12/10 00:40:11;;;;;;;38.92;21.33;;;0.10;99.90;;;;;;5057782;28;20039;-70
2022/12/10 00:42:37;;;;;;;38.20;19.42;;;0.00;99.90;;;;;;5055907;28;20028;-70
2022/12/10 00:45:03;;;;;;;38.33;20.38;;;0.00;99.90;;;;;;5057595;28;20036;-70
2022/12/10 00:47:29;;;;;;;39.30;19.95;;;0.00;99.90;;;;;;5072701;28;20488;-70
2022/12/10 00:49:54;;;;;;;38.10;19.55;;;0.00;99.90;;;;;;5074219;28;20044;-70
2022/12/10 00:52:20;;;;;;;38.35;19.45;;;0.00;99.90;;;;;;5072494;28;20102;-70
2022/12/10 00:54:45;;;;;;;36.25;19.75;;;0.00;99.90;;;;;;5059907;28;20037;-70
2022/12/10 00:57:11;;;;;;;41.17;20.25;;;-0.10;99.90;;;;;;5054011;28;20037;-70
2022/12/10 00:59:37;;;;;;;36.78;20.42;;;-0.10;99.90;;;;;;5072615;28;20047;-70
2022/12/10 01:02:02;;;;;;;41.83;20.58;;;-0.10;99.90;;;;;;5074059;28;20062;-70
2022/12/10 01:04:28;;;;;;;38.60;20.52;;;-0.20;99.90;;;;;;5055467;28;20052;-70
2022/12/10 01:06:54;;;;;;;38.42;20.65;;;-0.20;99.90;;;;;;5073630;28;20045;-70
2022/12/10 01:09:25;;;;;;;36.20;18.98;;;-0.30;99.90;;;;;;5072035;28;20127;-70
2022/12/10 01:11:52;;;;;;;39.90;21.23;;;-0.30;99.90;;;;;;5057202;28;20048;-70
2022/12/10 01:14:23;;;;;;;40.47;20.30;;;-0.20;99.90;;;;;;5054478;28;20037;-70
2022/12/10 01:16:52;;;;;;;39.85;19.73;;;-0.30;99.90;;;;;;5056848;28;20043;-70
2022/12/10 01:19:18;;;;;;;35.65;19.15;;;-0.30;99.90;;;;;;5055631;28;20063;-70
2022/12/10 01:21:44;;;;;;;40.70;20.38;;;-0.20;99.90;;;;;;5073396;28;20477;-70
2022/12/10 01:24:10;;;;;;;40.42;19.73;;;-0.20;99.90;;;;;;5044649;28;20041;-70
2022/12/10 01:26:36;;;;;;;42.40;21.00;;;-0.30;99.90;;;;;;5051478;28;20037;-69
2022/12/10 01:29:03;;;;;;;37.05;19.27;;;-0.20;99.90;;;;;;5053078;28;20511;-69
2022/12/10 01:31:34;;;;;;;36.22;18.77;;;-0.20;99.90;;;;;;5053423;28;20436;-69
2022/12/10 01:34:01;;;;;;;40.13;20.40;;;-0.20;99.90;;;;;;5047939;28;20097;-70
2022/12/10 01:36:30;;;;;;;39.42;19.98;;;-0.20;99.90;;;;;;5071189;28;20032;-70
2022/12/10 01:38:56;;;;;;;39.33;20.92;;;-0.20;99.90;;;;;;5056208;28;20041;-70
2022/12/10 01:41:24;;;;;;;42.45;21.77;;;-0.20;99.90;;;;;;5056416;28;20553;-70
2022/12/10 01:44:12;;;;;;;41.53;20.42;;;-0.30;99.90;;;;;;5055160;28;20040;-70
2022/12/10 01:46:40;;;;;;;38.58;19.58;;;-0.20;99.90;;;;;;5022659;28;20040;-69
2022/12/10 01:49:09;;;;;;;39.33;20.38;;;-0.20;99.90;;;;;;5055068;28;20060;-70
2022/12/10 01:51:37;;;;;;;42.80;21.92;;;-0.30;99.90;;;;;;5072807;28;20072;-70
2022/12/10 01:54:06;;;;;;;42.42;19.45;;;-0.30;99.90;;;;;;5045043;28;20493;-70
2022/12/10 01:56:37;;;;;;;42.00;20.42;;;-0.30;99.90;;;;;;5036137;28;20045;-69
2022/12/10 01:59:03;;;;;;;39.80;22.10;;;-0.30;99.90;;;;;;5066554;28;20044;-70
2022/12/10 02:02:07;;;;;;;39.25;21.08;;;-0.40;99.90;;;;;;5056177;28;20392;-69
2022/12/10 02:04:41;;;;;;;43.33;21.73;;;-0.30;99.90;;;;;;5032383;28;20076;-70
2022/12/10 02:07:18;;;;;;;42.38;21.27;;;-0.40;99.90;;;;;;5049464;28;20405;-70
2022/12/10 02:10:02;;;;;;;42.05;20.95;;;-0.30;99.90;;;;;;5047519;28;20045;-69
2022/12/10 02:12:41;;;;;;;41.10;20.95;;;-0.40;99.90;;;;;;5055495;28;20075;-70
2022/12/10 02:15:19;;;;;;;42.17;22.00;;;-0.40;99.90;;;;;;5071152;28;20067;-70
2022/12/10 02:18:05;;;;;;;42.88;21.08;;;-0.40;99.90;;;;;;5055647;28;20040;-70
2022/12/10 02:20:42;;;;;;;41.90;21.42;;;-0.40;99.90;;;;;;5072253;28;20060;-69
2022/12/10 02:23:12;;;;;;;44.95;22.95;;;-0.40;99.90;;;;;;5066712;28;20041;-69
2022/12/10 02:26:06;;;;;;;44.53;21.88;;;-0.50;99.90;;;;;;5035708;28;20119;-69
2022/12/10 02:28:56;;;;;;;44.17;21.95;;;-0.40;99.90;;;;;;5060520;28;20051;-69
2022/12/10 02:31:26;;;;;;;40.75;20.42;;;-0.40;99.90;;;;;;5055370;28;20455;-69
2022/12/10 02:33:57;;;;;;;42.25;21.83;;;-0.50;99.90;;;;;;5070687;28;20071;-70
2022/12/10 02:36:27;;;;;;;42.05;21.35;;;-0.50;99.90;;;;;;5055360;28;20044;-70
2022/12/10 02:38:55;;;;;;;45.55;21.98;;;-0.50;99.90;;;;;;5054183;28;20075;-70
2022/12/10 02:41:46;;;;;;;43.60;22.65;;;-0.50;99.90;;;;;;5055318;28;20041;-70
2022/12/10 02:44:14;;;;;;;44.97;22.95;;;-0.50;99.90;;;;;;5067747;28;20429;-70
2022/12/10 02:46:42;;;;;;;44.08;22.25;;;-0.50;99.90;;;;;;5071989;28;20127;-70
2022/12/10 02:49:11;;;;;;;46.78;23.75;;;-0.50;99.90;;;;;;5070634;28;20032;-69
2022/12/10 02:51:37;;;;;;;45.00;22.65;;;-0.50;99.90;;;;;;5053676;28;20094;-69
2022/12/10 02:54:05;;;;;;;43.00;22.83;;;-0.50;99.90;;;;;;5044659;28;20033;-69
2022/12/10 02:56:50;;;;;;;41.63;21.20;;;-0.50;99.90;;;;;;5051279;28;20539;-70
2022/12/10 02:59:44;;;;;;;45.45;21.83;;;-0.50;99.90;;;;;;5034416;28;20040;-69
2022/12/10 03:02:19;;;;;;;43.20;23.25;;;-0.50;99.90;;;;;;5060773;28;20048;-70
2022/12/10 03:04:59;;;;;;;41.92;22.42;;;-0.60;99.90;;;;;;5054545;28;20455;-69
2022/12/10 03:07:37;;;;;;;46.45;23.00;;;-0.50;99.90;;;;;;5070715;28;20102;-69
2022/12/10 03:10:21;;;;;;;41.72;22.48;;;-0.60;99.90;;;;;;5072043;28;20040;-70
2022/12/10 03:12:58;;;;;;;42.40;21.38;;;-0.60;99.90;;;;;;5052544;28;20040;-70
2022/12/10 03:15:25;;;;;;;45.05;23.63;;;-0.60;99.90;;;;;;5072017;28;20472;-70
2022/12/10 03:17:52;;;;;;;44.28;22.30;;;-0.60;99.90;;;;;;5053212;28;20037;-70
2022/12/10 03:20:18;;;;;;;45.60;22.55;;;-0.60;99.90;;;;;;5070690;28;20423;-69
2022/12/10 03:22:46;;;;;;;42.78;22.15;;;-0.60;99.90;;;;;;5055397;28;20094;-70
2022/12/10 03:25:17;;;;;;;46.53;23.33;;;-0.60;99.90;;;;;;5038844;28;20037;-69
2022/12/10 03:27:44;;;;;;;44.25;23.38;;;-0.70;99.90;;;;;;5040452;28;20584;-69
2022/12/10 03:30:10;;;;;;;44.42;23.73;;;-0.70;99.90;;;;;;5075376;28;20041;-69
2022/12/10 03:32:37;;;;;;;42.53;22.63;;;-0.70;99.90;;;;;;5074059;28;20385;-69
2022/12/10 03:35:04;;;;;;;45.97;24.35;;;-0.70;99.90;;;;;;5058727;28;20511;-69
2022/12/10 03:37:29;;;;;;;44.00;23.15;;;-0.70;99.90;;;;;;5073662;28;20045;-69
2022/12/10 03:39:56;;;;;;;43.88;22.65;;;-0.70;99.90;;;;;;5074431;28;20036;-69
2022/12/10 03:42:22;;;;;;;45.22;23.17;;;-0.70;99.90;;;;;;5057294;28;20036;-69
2022/12/10 03:44:51;;;;;;;43.38;22.27;;;-0.70;99.90;;;;;;5075204;28;20504;-69
2022/12/10 03:47:17;;;;;;;44.10;22.58;;;-0.80;99.90;;;;;;5074173;28;20115;-69
2022/12/10 03:49:44;;;;;;;48.08;25.23;;;-0.80;99.90;;;;;;5058515;28;20045;-69
2022/12/10 03:52:10;;;;;;;46.17;23.77;;;-0.80;99.90;;;;;;5073555;28;20036;-69
2022/12/10 03:54:36;;;;;;;46.10;23.80;;;-0.70;99.90;;;;;;5030884;28;20041;-69
2022/12/10 03:57:01;;;;;;;46.63;23.80;;;-0.70;99.90;;;;;;5035127;28;20379;-69
2022/12/10 03:59:27;;;;;;;43.63;22.35;;;-0.70;99.90;;;;;;5070521;28;20029;-69
2022/12/10 04:01:53;;;;;;;41.67;22.00;;;-0.80;99.90;;;;;;5075256;28;20500;-69
2022/12/10 04:04:18;;;;;;;48.85;23.50;;;-0.80;99.90;;;;;;5055479;28;20098;-69
2022/12/10 04:06:44;;;;;;;48.80;22.98;;;-0.80;99.90;;;;;;5048616;28;20127;-69
2022/12/10 04:09:11;;;;;;;44.22;23.15;;;-0.80;99.90;;;;;;5051192;28;20537;-69
2022/12/10 04:11:37;;;;;;;43.50;21.05;;;-0.70;99.90;;;;;;5067683;28;20119;-69
2022/12/10 04:16:47;;;;;;;48.42;23.67;;;-0.60;99.90;;;;;;5043021;28;20041;-70
2022/12/10 04:19:15;;;;;;;46.35;23.15;;;-0.60;99.90;;;;;;5037242;28;20031;-69
2022/12/10 04:27:23;;;;;;;47.78;24.02;;;-0.60;99.90;;;;;;5005060;28;20049;-70
2022/12/10 04:29:49;;;;;;;48.70;23.60;;;-0.70;99.90;;;;;;5036775;28;20048;-70
2022/12/10 04:32:15;;;;;;;47.80;24.08;;;-0.70;99.90;;;;;;5053962;28;20485;-70
2022/12/10 04:34:41;;;;;;;45.47;23.25;;;-0.70;99.90;;;;;;5036780;28;20155;-70
2022/12/10 04:37:07;;;;;;;43.70;22.33;;;-0.60;99.90;;;;;;5037805;28;20076;-70
2022/12/10 04:39:33;;;;;;;47.47;23.33;;;-0.60;99.90;;;;;;5052974;28;20033;-70
2022/12/10 04:41:59;;;;;;;45.88;24.08;;;-0.60;99.90;;;;;;5037781;28;20413;-70
2022/12/10 04:44:25;;;;;;;46.97;23.73;;;-0.70;99.90;;;;;;5053271;28;20049;-70
2022/12/10 04:46:50;;;;;;;46.60;24.25;;;-0.80;99.90;;;;;;5051918;28;20114;-70
2022/12/10 04:49:17;;;;;;;46.08;23.10;;;-0.90;99.90;;;;;;5062411;28;20036;-70
2022/12/10 04:51:43;;;;;;;48.47;23.98;;;-0.80;99.90;;;;;;5056259;28;20060;-70
2022/12/10 04:54:09;;;;;;;47.45;23.65;;;-0.90;99.90;;;;;;5036472;28;20064;-70
2022/12/10 04:56:34;;;;;;;46.65;23.83;;;-1.00;99.90;;;;;;5065463;28;20067;-70
2022/12/10 04:59:01;;;;;;;50.20;24.70;;;-1.10;99.90;;;;;;5040265;28;20076;-70
2022/12/10 05:01:27;;;;;;;47.80;23.50;;;-1.10;99.90;;;;;;5048917;28;20037;-70
2022/12/10 05:03:54;;;;;;;48.63;24.38;;;-1.10;99.90;;;;;;5064738;28;20045;-70
2022/12/10 05:06:20;;;;;;;44.33;23.10;;;-1.10;99.90;;;;;;5052426;28;20040;-70
2022/12/10 05:08:46;;;;;;;46.58;23.02;;;-1.20;99.90;;;;;;5050551;28;20040;-70
2022/12/10 05:11:15;;;;;;;47.50;22.63;;;-1.10;99.90;;;;;;5054800;28;20040;-70
2022/12/10 05:13:41;;;;;;;44.63;22.25;;;-1.10;99.90;;;;;;5041147;28;20508;-70
2022/12/10 05:16:08;;;;;;;44.90;22.40;;;-1.20;99.90;;;;;;5071073;28;20083;-70
2022/12/10 05:18:35;;;;;;;46.13;24.45;;;-1.20;99.90;;;;;;5058029;28;20113;-70
2022/12/10 05:21:06;;;;;;;43.88;24.20;;;-1.20;99.90;;;;;;5055820;28;20443;-70
2022/12/10 05:23:35;;;;;;;49.30;24.60;;;-1.20;99.90;;;;;;5050407;28;20033;-70
2022/12/10 05:26:07;;;;;;;46.65;23.20;;;-1.30;99.90;;;;;;5035659;28;20068;-70
2022/12/10 05:28:45;;;;;;;43.38;24.10;;;-1.30;99.90;;;;;;5027338;28;20044;-70
2022/12/10 05:31:14;;;;;;;45.67;24.67;;;-1.20;99.90;;;;;;5036693;28;20075;-70
2022/12/10 05:33:40;;;;;;;44.13;22.35;;;-1.20;99.90;;;;;;5035427;28;20493;-70
2022/12/10 05:36:06;;;;;;;44.92;21.70;;;-1.20;99.90;;;;;;5036373;28;20083;-70
2022/12/10 05:38:33;;;;;;;43.92;22.58;;;-1.20;99.90;;;;;;5048383;28;20044;-70
2022/12/10 05:41:23;;;;;;;45.38;22.38;;;-1.20;99.90;;;;;;5050132;28;20029;-70
2022/12/10 05:43:50;;;;;;;47.22;22.67;;;-1.20;99.90;;;;;;5045878;28;20473;-70
2022/12/10 05:46:21;;;;;;;46.13;23.50;;;-1.20;99.90;;;;;;5065877;28;20091;-70
2022/12/10 05:48:47;;;;;;;45.53;24.13;;;-1.20;99.90;;;;;;5057204;28;20128;-70
2022/12/10 05:51:18;;;;;;;50.95;23.88;;;-1.20;99.90;;;;;;5068837;28;20127;-70
2022/12/10 05:53:44;;;;;;;45.03;22.50;;;-1.10;99.90;;;;;;5038779;28;20500;-70
2022/12/10 05:56:12;;;;;;;48.95;24.67;;;-1.20;99.90;;;;;;5051759;28;20036;-70
2022/12/10 05:58:40;;;;;;;47.22;23.00;;;-1.20;99.90;;;;;;5032788;28;20041;-71
2022/12/10 06:01:18;;;;;;;44.85;22.75;;;-1.10;99.90;;;;;;5068210;28;20071;-70
2022/12/10 06:03:44;;;;;;;49.28;27.20;;;-1.10;99.90;;;;;;5039218;28;20461;-70
2022/12/10 06:06:11;;;;;;;48.40;24.33;;;-0.90;99.90;;;;;;5052078;28;20467;-70
2022/12/10 06:08:37;;;;;;;43.17;23.85;;;-0.90;99.90;;;;;;5057349;28;20554;-71
2022/12/10 06:11:08;;;;;;;54.97;25.65;;;-1.00;99.90;;;;;;5052197;28;20119;-70
2022/12/10 06:13:34;;;;;;;48.83;23.23;;;-1.10;99.90;;;;;;5034913;28;20076;-71
2022/12/10 06:16:07;;;;;;;47.03;24.88;;;-1.10;99.90;;;;;;5037262;28;20091;-70
2022/12/10 06:18:33;;;;;;;46.85;23.00;;;-1.10;99.90;;;;;;5033336;28;20045;-71
2022/12/10 06:20:58;;;;;;;49.13;25.05;;;-1.10;99.90;;;;;;5063572;28;20111;-71
2022/12/10 06:23:24;;;;;;;48.22;23.92;;;-1.20;99.90;;;;;;5052484;28;20041;-71
2022/12/10 06:25:49;;;;;;;52.53;24.40;;;-1.20;99.90;;;;;;5033145;28;20044;-71
2022/12/10 06:28:15;;;;;;;50.17;24.10;;;-1.20;99.90;;;;;;5031064;28;20496;-70
2022/12/10 06:30:41;;;;;;;51.67;25.58;;;-1.20;99.90;;;;;;5038296;28;20098;-71
2022/12/10 06:33:06;;;;;;;48.22;23.92;;;-1.20;99.90;;;;;;5030908;28;20040;-71
2022/12/10 06:35:32;;;;;;;51.83;25.58;;;-1.20;99.90;;;;;;5057287;28;20039;-71
2022/12/10 06:37:57;;;;;;;47.47;24.15;;;-1.20;99.90;;;;;;5035796;28;20071;-71
2022/12/10 06:40:23;;;;;;;48.72;24.10;;;-1.10;99.90;;;;;;5063142;28;20068;-71
2022/12/10 06:42:51;;;;;;;50.63;25.23;;;-1.10;99.90;;;;;;5043717;28;20029;-71
2022/12/10 06:45:17;;;;;;;52.63;26.17;;;-1.10;99.90;;;;;;5059512;28;20036;-71
2022/12/10 06:47:42;;;;;;;53.58;24.90;;;-1.10;99.90;;;;;;5051432;28;20040;-71
2022/12/10 06:50:08;;;;;;;58.22;26.55;;;-1.10;99.90;;;;;;5070065;28;20045;-71
2022/12/10 06:52:33;;;;;;;53.45;25.92;;;-1.00;99.90;;;;;;5042411;28;20075;-71
2022/12/10 06:54:59;;;;;;;57.75;27.13;;;-0.90;99.90;;;;;;5049464;28;20119;-71
2022/12/10 06:57:24;;;;;;;51.83;25.52;;;-0.90;99.90;;;;;;5066444;28;20044;-71
2022/12/10 06:59:50;;;;;;;52.10;23.83;;;-0.80;99.90;;;;;;5054638;28;20041;-71
2022/12/10 07:02:16;;;;;;;50.97;24.38;;;-0.80;99.90;;;;;;5049537;28;20044;-71
2022/12/10 07:04:41;;;;;;;52.67;24.02;;;-0.80;99.90;;;;;;5059268;28;20068;-71
2022/12/10 07:07:07;;;;;;;50.92;22.67;;;-0.70;99.90;;;;;;5068857;28;20037;-71
2022/12/10 07:09:34;;;;;;;53.15;25.85;;;-0.70;99.90;;;;;;5053750;28;20045;-71
2022/12/10 07:11:59;;;;;;;51.90;24.38;;;-0.60;99.90;;;;;;5049312;28;20449;-71
2022/12/10 07:14:25;;;;;;;48.42;23.25;;;-0.70;99.90;;;;;;5033781;28;20179;-71
2022/12/10 07:16:51;;;;;;;57.67;25.92;;;-0.70;99.90;;;;;;5047854;28;20040;-71
2022/12/10 07:19:18;;;;;;;55.92;24.55;;;-0.70;99.90;;;;;;5061774;28;20028;-71
2022/12/10 07:21:45;;;;;;;52.65;24.50;;;-0.60;99.90;;;;;;5059951;28;20041;-71
2022/12/10 07:24:18;;;;;;;53.40;26.15;;;-0.60;99.90;;;;;;5056666;28;20094;-71
2022/12/10 07:26:45;;;;;;;49.47;23.70;;;-0.70;99.90;;;;;;5045791;28;20374;-71
2022/12/10 07:29:17;;;;;;;51.22;23.65;;;-0.60;99.90;;;;;;5055010;28;20504;-71
2022/12/10 07:31:43;;;;;;;48.78;22.48;;;-0.60;99.90;;;;;;5048534;28;20040;-71
2022/12/10 07:34:10;;;;;;;51.58;24.33;;;-0.60;99.90;;;;;;5069846;28;20505;-71
2022/12/10 07:36:35;;;;;;;44.63;21.30;;;-0.50;99.90;;;;;;5068039;28;20044;-71
2022/12/10 07:39:06;;;;;;;50.22;23.75;;;-0.50;99.90;;;;;;5053158;28;20041;-73
2022/12/10 07:41:31;;;;;;;47.22;21.38;;;-0.60;99.90;;;;;;5060552;28;20036;-70
2022/12/10 07:43:57;;;;;;;52.08;24.48;;;-0.60;99.90;;;;;;5050046;28;20037;-71
2022/12/10 07:46:25;;;;;;;53.67;25.27;;;-0.70;99.90;;;;;;5051545;28;20063;-71
2022/12/10 07:48:51;;;;;;;51.03;23.75;;;-0.60;99.90;;;;;;5069670;28;20036;-71
2022/12/10 07:51:20;;;;;;;55.97;24.80;;;-0.70;99.90;;;;;;5067159;28;20512;-71
2022/12/10 07:53:46;;;;;;;55.25;25.13;;;-0.70;99.90;;;;;;5050300;28;20504;-71
2022/12/10 07:56:12;;;;;;;51.00;24.45;;;-0.70;99.90;;;;;;5052208;28;20090;-71
2022/12/10 07:58:42;;;;;;;59.97;26.02;;;-0.70;99.90;;;;;;5048283;28;20055;-71
2022/12/10 08:01:10;;;;;;;56.22;26.75;;;-0.70;99.90;;;;;;5033537;28;20527;-71
2022/12/10 08:03:36;;;;;;;52.25;24.83;;;-0.80;99.90;;;;;;5070084;28;20055;-71
2022/12/10 08:06:07;;;;;;;49.47;23.83;;;-0.80;99.90;;;;;;5035027;28;20397;-71
2022/12/10 08:08:34;;;;;;;50.05;24.95;;;-0.70;99.90;;;;;;5051295;28;20765;-71
2022/12/10 08:11:04;;;;;;;51.63;24.77;;;-0.60;99.90;;;;;;5055010;28;20089;-71
2022/12/10 08:13:29;;;;;;;51.35;24.65;;;-0.70;99.90;;;;;;5045227;28;20078;-71
2022/12/10 08:16:02;;;;;;;55.05;24.50;;;-0.70;99.90;;;;;;5060069;28;20041;-71
2022/12/10 08:18:27;;;;;;;52.95;25.05;;;-0.70;99.90;;;;;;5050954;28;20505;-71
2022/12/10 08:20:53;;;;;;;53.28;26.15;;;-0.70;99.90;;;;;;5069632;28;20044;-72
2022/12/10 08:23:18;;;;;;;53.92;25.25;;;-0.60;99.90;;;;;;5071985;28;20036;-71
2022/12/10 08:25:44;;;;;;;51.08;24.40;;;-0.60;99.90;;;;;;5054099;28;20091;-71
2022/12/10 08:28:09;;;;;;;48.08;23.70;;;-0.60;99.90;;;;;;5069262;28;20040;-71
2022/12/10 08:30:35;;;;;;;51.97;25.27;;;-0.60;99.90;;;;;;5055862;28;20056;-71
2022/12/10 08:33:00;;;;;;;53.80;25.50;;;-0.60;99.90;;;;;;5056968;28;20041;-71
2022/12/10 08:35:26;;;;;;;52.92;24.67;;;-0.50;99.90;;;;;;5049743;28;20404;-70
2022/12/10 08:37:52;;;;;;;50.45;24.33;;;-0.50;99.90;;;;;;5045185;28;20439;-71
2022/12/10 08:40:17;;;;;;;50.67;23.55;;;-0.50;99.90;;;;;;5055700;28;20048;-71
2022/12/10 08:42:43;;;;;;;48.95;21.80;;;-0.50;99.90;;;;;;5072490;28;20036;-71
2022/12/10 08:45:09;;;;;;;50.83;24.02;;;-0.40;99.90;;;;;;5070755;28;20094;-71
2022/12/10 08:47:34;;;;;;;49.33;23.10;;;-0.40;99.90;;;;;;5071095;28;20041;-71
2022/12/10 08:50:00;;;;;;;51.28;25.95;;;-0.40;99.90;;;;;;5045480;28;20499;-71
2022/12/10 08:52:28;;;;;;;53.13;24.85;;;-0.50;99.90;;;;;;5034958;28;20044;-71
2022/12/10 08:54:54;;;;;;;48.58;22.63;;;-0.50;99.90;;;;;;5062366;28;20389;-71
2022/12/10 08:57:20;;;;;;;54.78;26.92;;;-0.50;99.90;;;;;;5055560;28;20047;-71
2022/12/10 08:59:45;;;;;;;52.28;24.33;;;-0.60;99.90;;;;;;5066019;28;20045;-72
2022/12/10 09:02:11;;;;;;;54.70;25.48;;;-0.50;99.90;;;;;;5054462;28;20047;-72
2022/12/10 09:04:38;;;;;;;54.03;24.90;;;-0.60;99.90;;;;;;5072185;28;20131;-72
2022/12/10 09:07:04;;;;;;;51.45;26.08;;;-0.50;99.90;;;;;;5062386;28;20044;-72
2022/12/10 09:09:31;;;;;;;48.92;25.05;;;-0.50;99.90;;;;;;5068797;28;20397;-72
2022/12/10 09:12:06;;;;;;;50.90;23.27;;;-0.50;99.90;;;;;;5070587;28;20089;-75
2022/12/10 09:14:56;;;;;;;53.83;24.83;;;-0.40;99.90;;;;;;5053610;28;20047;-73
2022/12/10 09:17:22;;;;;;;51.63;25.02;;;-0.40;99.90;;;;;;5035314;28;20541;-70
2022/12/10 09:19:47;;;;;;;53.50;25.95;;;-0.50;99.90;;;;;;5052796;28;20076;-71
2022/12/10 09:22:13;;;;;;;54.72;24.85;;;-0.40;99.90;;;;;;5053184;28;20397;-71
2022/12/10 09:24:45;;;;;;;54.05;24.27;;;-0.50;99.90;;;;;;5056095;28;20051;-72
2022/12/10 09:27:14;;;;;;;49.45;22.55;;;-0.40;99.90;;;;;;5052412;28;20037;-71
2022/12/10 09:29:39;;;;;;;51.53;23.70;;;-0.30;99.90;;;;;;5072927;28;20041;-71
2022/12/10 09:32:05;;;;;;;35.95;16.40;;;-0.40;99.90;;;;;;5071358;28;20127;-71
2022/12/10 09:34:30;;;;;;;47.88;24.92;;;-0.40;99.90;;;;;;5071733;28;20476;-71
2022/12/10 09:36:56;;;;;;;52.70;23.80;;;-0.50;99.90;;;;;;5052133;28;20056;-71
2022/12/10 09:39:22;;;;;;;54.25;24.00;;;-0.50;99.90;;;;;;5045598;28;20033;-71
2022/12/10 09:42:10;;;;;;;54.33;25.20;;;-0.40;99.90;;;;;;5043263;28;20036;-72
2022/12/10 09:45:13;;;;;;;50.45;24.05;;;-0.40;99.90;;;;;;5054977;28;20044;-70
2022/12/10 09:48:10;;;;;;;53.63;22.83;;;-0.40;99.90;;;;;;5059643;28;20041;-70
2022/12/10 09:50:39;;;;;;;51.60;23.55;;;-0.30;99.90;;;;;;5038067;28;20064;-70
2022/12/10 09:53:12;;;;;;;53.42;23.88;;;-0.40;99.90;;;;;;5050414;28;20105;-70
2022/12/10 09:55:42;;;;;;;51.92;23.60;;;-0.30;99.90;;;;;;5052453;28;20090;-70
2022/12/10 09:58:17;;;;;;;62.10;22.95;;;-0.30;99.90;;;;;;5035192;28;20052;-76
2022/12/10 10:00:46;;;;;;;50.20;24.05;;;-0.20;99.90;;;;;;5053814;28;20041;-70
2022/12/10 10:03:14;;;;;;;52.75;24.77;;;-0.20;99.90;;;;;;5057504;28;20037;-70
2022/12/10 10:05:47;;;;;;;57.80;24.65;;;-0.20;99.90;;;;;;5037334;28;20048;-70
2022/12/10 10:08:21;;;;;;;53.88;25.27;;;-0.20;99.90;;;;;;5035704;28;20076;-70
2022/12/10 10:10:47;;;;;;;59.05;25.42;;;-0.30;99.90;;;;;;5032673;28;20045;-70
2022/12/10 10:13:28;;;;;;;61.45;28.75;;;-0.20;99.90;;;;;;5065094;28;20131;-70
2022/12/10 10:15:55;;;;;;;54.97;26.17;;;-0.20;99.90;;;;;;5052713;28;20052;-70
2022/12/10 10:18:34;;;;;;;59.50;28.02;;;-0.30;99.90;;;;;;5065122;28;20524;-70
2022/12/10 10:21:01;;;;;;;60.33;26.60;;;-0.20;99.90;;;;;;5035863;28;20561;-70
2022/12/10 10:23:26;;;;;;;57.67;26.67;;;-0.20;99.90;;;;;;5047390;28;20358;-70
2022/12/10 10:25:52;;;;;;;52.58;23.55;;;-0.10;99.90;;;;;;5041581;28;20123;-70
2022/12/10 10:28:21;;;;;;;54.63;25.33;;;-0.20;99.90;;;;;;5068702;28;20072;-70
2022/12/10 10:30:47;;;;;;;50.88;23.20;;;-0.10;99.90;;;;;;5031173;28;20040;-70
2022/12/10 10:33:14;;;;;;;54.83;24.25;;;0.00;99.90;;;;;;5069542;28;20479;-70
2022/12/10 10:35:47;;;;;;;50.63;24.60;;;0.00;99.90;;;;;;5068930;28;20063;-70
2022/12/10 10:38:23;;;;;;;56.03;26.05;;;-0.10;99.90;;;;;;5064419;28;20488;-69
2022/12/10 10:40:56;;;;;;;54.28;25.40;;;-0.10;99.90;;;;;;5070453;28;20036;-70
2022/12/10 10:43:26;;;;;;;49.78;24.55;;;-0.10;99.90;;;;;;5069404;28;20061;-72
2022/12/10 10:45:56;;;;;;;49.55;23.23;;;-0.10;99.90;;;;;;5041482;28;20045;-70
2022/12/10 10:48:24;;;;;;;55.47;25.77;;;0.00;99.90;;;;;;5063940;28;20484;-71
2022/12/10 10:51:18;;;;;;;53.00;25.00;;;-0.10;99.90;;;;;;5039810;28;20378;-72
2022/12/10 10:53:46;;;;;;;49.65;23.92;;;0.00;99.90;;;;;;5057660;28;20052;-72
2022/12/10 10:56:29;;;;;;;51.30;24.38;;;0.10;99.90;;;;;;5074166;28;20493;-75
2022/12/10 10:59:05;;;;;;;;;;;0.10;99.90;;;;;;5067845;28;20416;-70
2022/12/10 11:02:09;;;;;;;50.40;22.73;;;0.10;99.90;;;;;;5061996;28;19924;-73
2022/12/10 11:04:34;;;;;;;49.42;23.55;;;0.10;99.90;;;;;;5014128;28;20081;-72
2022/12/10 11:07:02;;;;;;;50.67;24.58;;;0.10;99.90;;;;;;5036649;28;20531;-72
2022/12/10 11:09:31;;;;;;;49.80;24.85;;;0.10;99.90;;;;;;5053909;28;20438;-73
2022/12/10 11:12:06;;;;;;;50.08;25.00;;;0.10;99.90;;;;;;5071335;28;20036;-72
2022/12/10 11:14:44;;;;;;;50.60;24.30;;;0.10;99.90;;;;;;5033769;28;20037;-72
2022/12/10 11:17:09;;;;;;;55.25;25.30;;;0.10;99.90;;;;;;5067829;28;20070;-72
2022/12/10 11:19:41;;;;;;;55.17;25.45;;;0.10;99.90;;;;;;5048440;28;20122;-72
2022/12/10 11:22:20;;;;;;;61.13;26.73;;;0.10;99.90;;;;;;5051390;28;20040;-72
2022/12/10 11:24:47;;;;;;;51.53;23.75;;;0.20;99.90;;;;;;5067874;28;20040;-72
2022/12/10 11:27:43;;;;;;;56.85;26.77;;;0.10;99.90;;;;;;5069036;28;20125;-72
2022/12/10 11:30:14;;;;;;;55.65;26.10;;;0.20;99.90;;;;;;5053994;28;20095;-72
2022/12/10 11:33:13;;;;;;;58.58;27.63;;;0.10;99.90;;;;;;5069639;28;20090;-72
2022/12/10 11:36:02;;;;;;;55.70;26.33;;;0.00;99.90;;;;;;5047769;28;20605;-72
2022/12/10 11:38:52;;;;;;;57.75;26.05;;;0.00;99.90;;;;;;5040717;28;20045;-72
2022/12/10 11:41:38;;;;;;;53.83;24.83;;;0.00;99.90;;;;;;5031498;28;20501;-72
2022/12/10 11:44:26;;;;;;;54.60;25.17;;;0.00;99.90;;;;;;5035028;28;20480;-72
2022/12/10 11:47:00;;;;;;;48.10;22.88;;;0.00;99.90;;;;;;5043852;28;20029;-72
2022/12/10 11:49:37;;;;;;;52.67;23.05;;;0.00;99.90;;;;;;5057958;28;20039;-72
2022/12/10 11:52:12;;;;;;;51.92;24.98;;;0.00;99.90;;;;;;5045432;28;20043;-72
2022/12/10 11:55:16;;;;;;;55.17;22.88;;;0.00;99.90;;;;;;5038200;28;20049;-74
2022/12/10 11:57:47;;;;;;;52.75;23.42;;;0.00;99.90;;;;;;5040850;28;20045;-72
2022/12/10 12:00:19;;;;;;;47.70;24.52;;;0.20;99.90;;;;;;5058520;28;20041;-72
2022/12/10 12:03:03;;;;;;;47.88;23.35;;;0.30;99.90;;;;;;5058702;28;20044;-72
2022/12/10 12:05:28;;;;;;;50.03;22.70;;;0.30;99.90;;;;;;5056922;28;20056;-72
2022/12/10 12:08:06;;;;;;;47.92;22.25;;;0.40;99.90;;;;;;5049093;28;20041;-71
2022/12/10 12:10:44;;;;;;;43.55;20.60;;;0.30;99.90;;;;;;5047878;28;20464;-71
2022/12/10 12:13:15;;;;;;;50.65;22.80;;;0.30;99.90;;;;;;5071234;28;20464;-71
2022/12/10 12:15:53;;;;;;;47.63;21.70;;;0.30;99.90;;;;;;5060131;28;20041;-71
2022/12/10 12:18:36;;;;;;;48.15;22.92;;;0.30;99.90;;;;;;5068748;28;20392;-78
2022/12/10 12:21:05;;;;;;;46.20;22.02;;;0.40;99.90;;;;;;5057221;28;20142;-71
2022/12/10 12:23:49;;;;;;;53.28;23.50;;;0.40;99.90;;;;;;5070126;28;20079;-71
2022/12/10 12:26:29;;;;;;;48.85;22.50;;;0.40;99.90;;;;;;5052309;28;20048;-71
2022/12/10 12:29:36;;;;;;;52.25;24.25;;;0.40;99.90;;;;;;5051119;28;20064;-71
2022/12/10 12:32:21;;;;;;;49.35;22.88;;;0.40;99.90;;;;;;5054571;28;20037;-72
2022/12/10 12:34:50;;;;;;;47.90;22.27;;;0.40;99.90;;;;;;5018385;28;20087;-69
2022/12/10 12:37:20;;;;;;;47.40;22.63;;;0.40;99.90;;;;;;5022295;28;20080;-70
2022/12/10 12:40:13;;;;;;;41.55;21.27;;;0.40;99.90;;;;;;5074308;28;20072;-70
2022/12/10 12:42:47;;;;;;;42.97;19.13;;;0.30;99.90;;;;;;5068093;28;20041;-70
2022/12/10 12:45:32;;;;;;;45.88;20.98;;;0.30;99.90;;;;;;5042306;28;20047;-69
2022/12/10 12:48:12;;;;;;;43.90;21.55;;;0.30;99.90;;;;;;5034565;28;20102;-72
2022/12/10 12:50:49;;;;;;;36.08;16.40;;;0.40;99.90;;;;;;5037807;28;20044;-70
2022/12/10 12:53:20;;;;;;;39.28;19.88;;;0.40;99.90;;;;;;5070813;28;20097;-70